»·PEaware :: DAL1697 KBOS-KLAX

DAL1697 :: KBOS-KLAX

FLIGHT INFORMATION

Flight Status: Arrived
Operator:
Delta Air Lines
More flights by this operator :: More flights under this callsign
Pilot: Henderson P. (1210)
Aircraft: BOEING 737-800
(B738)
More flights by this aircraft type
Origin: KBOS Logan Intl
United States
Destination: KLAX Los Angeles Intl
United States
More flights between these airports :: More routes between these airports
Route: +BLZZR4 BLZZR BAF Q406 BWZ ZIMMZ Q42 SPOTZ Q480 AIR FLM PXV J78 TUL IFI PNH NABOB J231 HIPPI GABBL HLYWD1
File this flight plan on PilotEdge
Remarks:
Altitude:
(Current/Filed)
36,000ft
Speed:
(Current/Filed)
459kts
Departed: 19-Sep-18 11:43 AM
Arrived: 19-Sep-18 05:23 PM
Distance/Time
Traveled:
2262nm/5:40
Distance/Time
To Go:
Arrived

Flight Plot

Page will automatically refresh every two minutes.

Flight plan parsing failed; only flown route is shown


Map Options




Map Legend


Flown Route
Filed Route
Departure Airport
Arrival Airport
Navaid (VOR, NDB)
Fix

Horizontal Profiles

Position Reports

Time Latitude Longitude Heading Altitude Ground
Speed
19-Sep-18 10:41 42.364106 -71.022902 63 27ft 0kts
19-Sep-18 10:42 42.364106 -71.022902 63 26ft 0kts
19-Sep-18 10:43 42.364106 -71.022902 63 26ft 0kts
19-Sep-18 10:44 42.364106 -71.022902 63 26ft 0kts
19-Sep-18 10:45 42.364106 -71.022902 63 26ft 0kts
19-Sep-18 10:46 42.364106 -71.022902 63 26ft 0kts
19-Sep-18 10:47 42.364106 -71.022902 63 26ft 0kts
19-Sep-18 10:48 42.364106 -71.022902 63 26ft 0kts
19-Sep-18 10:49 42.364106 -71.022902 63 26ft 0kts
19-Sep-18 10:50 42.364106 -71.022902 63 26ft 0kts
19-Sep-18 10:51 42.364106 -71.022902 63 26ft 0kts
19-Sep-18 10:52 42.364106 -71.022902 63 26ft 0kts
19-Sep-18 10:53 42.364106 -71.022902 63 26ft 0kts
19-Sep-18 10:54 42.364106 -71.022902 63 26ft 0kts
19-Sep-18 10:55 42.364106 -71.022902 63 26ft 0kts
19-Sep-18 10:56 42.364106 -71.022902 63 26ft 0kts
19-Sep-18 10:57 42.364106 -71.022902 63 26ft 0kts
19-Sep-18 10:58 42.364106 -71.022902 63 26ft 0kts
19-Sep-18 10:59 42.364106 -71.022902 63 26ft 0kts
19-Sep-18 11:00 42.364106 -71.022902 63 26ft 0kts
19-Sep-18 11:01 42.364106 -71.022902 63 26ft 0kts
19-Sep-18 11:02 42.364106 -71.022902 63 26ft 0kts
19-Sep-18 11:03 42.364106 -71.022902 63 26ft 0kts
19-Sep-18 11:04 42.364106 -71.022902 63 26ft 0kts
19-Sep-18 11:05 42.364106 -71.022902 63 26ft 0kts
19-Sep-18 11:06 42.364106 -71.022902 63 26ft 0kts
19-Sep-18 11:07 42.364106 -71.022902 63 26ft 0kts
19-Sep-18 11:08 42.364106 -71.022902 63 26ft 0kts
19-Sep-18 11:09 42.364106 -71.022902 63 26ft 0kts
19-Sep-18 11:10 42.364106 -71.022902 63 26ft 0kts
19-Sep-18 11:11 42.364106 -71.022902 63 26ft 0kts
19-Sep-18 11:12 42.364106 -71.022902 63 26ft 0kts
19-Sep-18 11:13 42.364106 -71.022902 63 26ft 0kts
19-Sep-18 11:14 42.364106 -71.022902 63 26ft 0kts
19-Sep-18 11:15 42.364106 -71.022902 63 26ft 0kts
19-Sep-18 11:16 42.364106 -71.022902 63 26ft 0kts
19-Sep-18 11:17 42.364106 -71.022902 63 26ft 0kts
19-Sep-18 11:18 42.364106 -71.022902 63 26ft 0kts
19-Sep-18 11:19 42.364106 -71.022902 63 26ft 0kts
19-Sep-18 11:20 42.364106 -71.022902 63 26ft 0kts
19-Sep-18 11:21 42.364106 -71.022902 63 26ft 0kts
19-Sep-18 11:22 42.364106 -71.022902 63 26ft 0kts
19-Sep-18 11:23 42.364106 -71.022902 63 26ft 0kts
19-Sep-18 11:24 42.364106 -71.022902 63 26ft 0kts
19-Sep-18 11:25 42.364106 -71.022902 63 26ft 0kts
19-Sep-18 11:26 42.364106 -71.022902 63 26ft 0kts
19-Sep-18 11:27 42.364106 -71.022902 63 26ft 0kts
19-Sep-18 11:28 42.364106 -71.022902 63 26ft 0kts
19-Sep-18 11:29 42.364106 -71.022902 63 26ft 0kts
19-Sep-18 11:30 42.364106 -71.022902 63 26ft 0kts
19-Sep-18 11:31 42.364106 -71.022902 63 26ft 0kts
19-Sep-18 11:32 42.364106 -71.022902 63 26ft 0kts
19-Sep-18 11:33 42.364106 -71.022902 63 26ft 0kts
19-Sep-18 11:34 42.364089 -71.023557 139 26ft 2kts
19-Sep-18 11:35 42.364234 -71.023682 151 26ft 0kts
19-Sep-18 11:36 42.364233 -71.023681 151 26ft 0kts
19-Sep-18 11:37 42.364212 -71.023665 151 26ft 2kts
19-Sep-18 11:38 42.360622 -71.023017 144 26ft 10kts
19-Sep-18 11:39 42.358782 -71.019030 118 26ft 13kts
19-Sep-18 11:40 42.358279 -71.016632 101 26ft 0kts
19-Sep-18 11:41 42.361990 -71.014040 18 26ft 22kts
19-Sep-18 11:42 42.366731 -71.011711 20 26ft 15kts
19-Sep-18 11:43 42.370315 -71.014723 314 26ft 18kts
19-Sep-18 11:44 42.373518 -71.018534 18 26ft 11kts
19-Sep-18 11:45 42.361811 -71.001211 134 27ft 165kts
19-Sep-18 11:46 42.331277 -70.944447 113 2207ft 215kts
19-Sep-18 11:47 42.322190 -70.857863 67 4371ft 257kts
19-Sep-18 11:48 42.317371 -70.759667 113 7186ft 287kts
19-Sep-18 11:49 42.250937 -70.709278 194 9790ft 307kts
19-Sep-18 11:50 42.181812 -70.775995 250 11598ft 335kts
19-Sep-18 11:51 42.164332 -70.907415 263 13275ft 367kts
19-Sep-18 11:52 42.166697 -71.045715 276 15528ft 376kts
19-Sep-18 11:53 42.177259 -71.188097 276 17551ft 387kts
19-Sep-18 11:54 42.187693 -71.334413 276 19429ft 396kts
19-Sep-18 11:55 42.198728 -71.483522 275 21178ft 403kts
19-Sep-18 11:56 42.209064 -71.635795 275 22729ft 410kts
19-Sep-18 11:57 42.215722 -71.790641 267 24100ft 418kts
19-Sep-18 11:58 42.207030 -71.947790 265 25360ft 423kts
19-Sep-18 11:59 42.197772 -72.107298 265 26527ft 428kts
19-Sep-18 12:00 42.188622 -72.268061 265 27622ft 431kts
19-Sep-18 12:01 42.179678 -72.429415 264 28772ft 431kts
19-Sep-18 12:02 42.169884 -72.589669 264 30156ft 425kts
19-Sep-18 12:03 42.141182 -72.740742 238 31315ft 424kts
19-Sep-18 12:04 42.072084 -72.869913 234 32397ft 424kts
19-Sep-18 12:05 41.998845 -72.994856 234 33267ft 426kts
19-Sep-18 12:06 41.911397 -73.104342 217 34078ft 436kts
19-Sep-18 12:07 41.808053 -73.192228 216 34813ft 441kts
19-Sep-18 12:08 41.703712 -73.279440 216 35539ft 443kts
19-Sep-18 12:09 41.612885 -73.387526 232 36005ft 437kts
19-Sep-18 12:10 41.532976 -73.509992 233 36007ft 436kts
19-Sep-18 12:11 41.453347 -73.631941 232 36007ft 437kts
19-Sep-18 12:12 41.373011 -73.754080 232 36005ft 437kts
19-Sep-18 12:13 41.292383 -73.874771 232 36005ft 438kts
19-Sep-18 12:14 41.210489 -73.995234 232 36000ft 438kts
19-Sep-18 12:15 41.131345 -74.118932 241 35992ft 440kts
19-Sep-18 12:16 41.071084 -74.246207 242 35990ft 438kts
19-Sep-18 12:17 41.006505 -74.382982 242 35993ft 439kts
19-Sep-18 12:18 40.941805 -74.520657 242 36000ft 440kts
19-Sep-18 12:19 40.876800 -74.657836 242 36003ft 440kts
19-Sep-18 12:20 40.813538 -74.796114 253 36000ft 435kts
19-Sep-18 12:21 40.800724 -74.950877 274 36006ft 423kts
19-Sep-18 12:22 40.802244 -75.106302 271 36018ft 425kts
19-Sep-18 12:23 40.783193 -75.261501 263 36025ft 430kts
19-Sep-18 12:24 40.752868 -75.414563 251 36019ft 440kts
19-Sep-18 12:25 40.699377 -75.560414 249 36014ft 442kts
19-Sep-18 12:26 40.644578 -75.706107 249 36026ft 444kts
19-Sep-18 12:27 40.589432 -75.851929 249 36018ft 444kts
19-Sep-18 12:28 40.533873 -75.997442 249 36018ft 445kts
19-Sep-18 12:29 40.478022 -76.143727 250 36017ft 448kts
19-Sep-18 12:30 40.422204 -76.289858 250 36026ft 448kts
19-Sep-18 12:31 40.365924 -76.435251 250 36036ft 448kts
19-Sep-18 12:32 40.308459 -76.580627 249 36035ft 449kts
19-Sep-18 12:33 40.250098 -76.725439 249 36024ft 450kts
19-Sep-18 12:34 40.191593 -76.870026 249 36029ft 449kts
19-Sep-18 12:35 40.133419 -77.014600 250 36033ft 450kts
19-Sep-18 12:36 40.074754 -77.159796 250 36043ft 452kts
19-Sep-18 12:37 40.015577 -77.304408 250 36052ft 453kts
19-Sep-18 12:38 39.963167 -77.452332 267 36065ft 437kts
19-Sep-18 12:39 39.960905 -77.606013 280 36061ft 420kts
19-Sep-18 12:40 39.965600 -77.758370 280 36060ft 420kts
19-Sep-18 12:41 39.969925 -77.910434 280 36052ft 420kts
19-Sep-18 12:42 39.974085 -78.062471 280 36066ft 420kts
19-Sep-18 12:43 39.977927 -78.214686 280 36074ft 420kts
19-Sep-18 12:44 39.981541 -78.366961 280 36074ft 420kts
19-Sep-18 12:45 39.985545 -78.519721 280 36073ft 421kts
19-Sep-18 12:46 39.989180 -78.671743 279 36078ft 420kts
19-Sep-18 12:47 39.992513 -78.824225 279 36094ft 420kts
19-Sep-18 12:48 39.995588 -78.976299 279 36123ft 419kts
19-Sep-18 12:49 39.998780 -79.128317 279 36127ft 418kts
19-Sep-18 12:50 40.001293 -79.279234 279 36127ft 413kts
19-Sep-18 12:51 40.003613 -79.428559 279 36124ft 413kts
19-Sep-18 12:52 40.005680 -79.578753 279 36118ft 413kts
19-Sep-18 12:53 40.007496 -79.728514 279 36115ft 413kts
19-Sep-18 12:54 40.009204 -79.878490 279 36111ft 413kts
19-Sep-18 12:55 40.011246 -80.028485 279 36099ft 413kts
19-Sep-18 12:56 40.012822 -80.178443 278 36099ft 413kts
19-Sep-18 12:57 40.014121 -80.328596 278 36099ft 412kts
19-Sep-18 12:58 40.015483 -80.478062 278 36100ft 412kts
19-Sep-18 12:59 40.016328 -80.627190 278 36100ft 411kts
19-Sep-18 13:00 40.016138 -80.776641 272 36097ft 416kts
19-Sep-18 13:01 39.977020 -80.924123 252 36099ft 444kts
19-Sep-18 13:02 39.923030 -81.069170 252 36097ft 444kts
19-Sep-18 13:03 39.868830 -81.213658 252 36097ft 444kts
19-Sep-18 13:04 39.815223 -81.357770 252 36095ft 442kts
19-Sep-18 13:05 39.761261 -81.501400 251 36093ft 442kts
19-Sep-18 13:06 39.707087 -81.644636 251 36089ft 441kts
19-Sep-18 13:07 39.652903 -81.787106 251 36088ft 440kts
19-Sep-18 13:08 39.598498 -81.929411 251 36083ft 440kts
19-Sep-18 13:09 39.543867 -82.071678 251 36079ft 440kts
19-Sep-18 13:10 39.489068 -82.213644 250 36076ft 441kts
19-Sep-18 13:11 39.434015 -82.355642 250 36070ft 442kts
19-Sep-18 13:12 39.378700 -82.497630 250 36070ft 443kts
19-Sep-18 13:13 39.322958 -82.640041 249 36068ft 444kts
19-Sep-18 13:14 39.267145 -82.781965 249 36065ft 444kts
19-Sep-18 13:15 39.211016 -82.924002 248 36064ft 445kts
19-Sep-18 13:16 39.154484 -83.066422 248 36064ft 446kts
19-Sep-18 13:17 39.097966 -83.208055 248 36065ft 446kts
19-Sep-18 13:18 39.041149 -83.349930 247 36066ft 445kts
19-Sep-18 13:19 38.993781 -83.467681 247 36067ft 445kts
19-Sep-18 13:20 38.926980 -83.632957 247 36071ft 446kts
19-Sep-18 13:21 38.869692 -83.773981 247 36074ft 446kts
19-Sep-18 13:22 38.821672 -83.891722 247 36072ft 447kts
19-Sep-18 13:23 38.754709 -84.055875 246 36069ft 445kts
19-Sep-18 13:24 38.696679 -84.196456 246 36068ft 446kts
19-Sep-18 13:25 38.650972 -84.314166 253 36066ft 441kts
19-Sep-18 13:26 38.614381 -84.489951 259 36064ft 438kts
19-Sep-18 13:27 38.589717 -84.615804 259 36062ft 437kts
19-Sep-18 13:28 38.560103 -84.766427 259 36067ft 436kts
19-Sep-18 13:29 38.530757 -84.916958 259 36066ft 436kts
19-Sep-18 13:30 38.501028 -85.067137 259 36062ft 436kts
19-Sep-18 13:31 38.471068 -85.216939 259 36062ft 436kts
19-Sep-18 13:32 38.440887 -85.366690 259 36060ft 435kts
19-Sep-18 13:33 38.410617 -85.515760 259 36053ft 435kts
19-Sep-18 13:34 38.380013 -85.665393 258 36046ft 436kts
19-Sep-18 13:35 38.349180 -85.815081 258 36042ft 436kts
19-Sep-18 13:36 38.318247 -85.964185 258 36041ft 436kts
19-Sep-18 13:37 38.287082 -86.113408 258 36040ft 436kts
19-Sep-18 13:38 38.255732 -86.262471 258 36053ft 436kts
19-Sep-18 13:39 38.224191 -86.411413 258 36052ft 436kts
19-Sep-18 13:40 38.192438 -86.560347 258 36048ft 435kts
19-Sep-18 13:41 38.160635 -86.708511 258 36043ft 435kts
19-Sep-18 13:42 38.128541 -86.857034 257 36040ft 436kts
19-Sep-18 13:43 38.096299 -87.005217 257 36039ft 436kts
19-Sep-18 13:44 38.063759 -87.153811 257 36037ft 437kts
19-Sep-18 13:45 38.030934 -87.302728 257 36038ft 438kts
19-Sep-18 13:46 37.998192 -87.451498 256 36039ft 439kts
19-Sep-18 13:47 37.964779 -87.600791 256 36039ft 441kts
19-Sep-18 13:48 37.931346 -87.750562 259 36038ft 440kts
19-Sep-18 13:49 37.914710 -87.903847 264 36036ft 438kts
19-Sep-18 13:50 37.899938 -88.057011 264 36033ft 438kts
19-Sep-18 13:51 37.884978 -88.210255 265 36030ft 438kts
19-Sep-18 13:52 37.870265 -88.363733 264 36030ft 439kts
19-Sep-18 13:53 37.855093 -88.517055 264 36030ft 440kts
19-Sep-18 13:54 37.839842 -88.671220 264 36031ft 441kts
19-Sep-18 13:55 37.823982 -88.825223 263 36039ft 442kts
19-Sep-18 13:56 37.807920 -88.979538 264 36048ft 442kts
19-Sep-18 13:57 37.792021 -89.133202 263 36046ft 442kts
19-Sep-18 13:58 37.775768 -89.287582 263 36039ft 442kts
19-Sep-18 13:59 37.759616 -89.441537 263 36040ft 441kts
19-Sep-18 14:00 37.743588 -89.594754 263 36038ft 440kts
19-Sep-18 14:01 37.727129 -89.748147 263 36040ft 440kts
19-Sep-18 14:02 37.710695 -89.901272 263 36043ft 440kts
19-Sep-18 14:03 37.693736 -90.054567 262 36047ft 440kts
19-Sep-18 14:04 37.676525 -90.207131 262 36053ft 440kts
19-Sep-18 14:05 37.644293 -90.357014 254 36057ft 442kts
19-Sep-18 14:06 37.608351 -90.505030 254 36056ft 443kts
19-Sep-18 14:07 37.572018 -90.654052 254 36051ft 444kts
19-Sep-18 14:08 37.536206 -90.803198 254 36047ft 445kts
19-Sep-18 14:09 37.499846 -90.952671 253 36042ft 446kts
19-Sep-18 14:10 37.463262 -91.101764 253 36039ft 446kts
19-Sep-18 14:11 37.426487 -91.250591 253 36038ft 447kts
19-Sep-18 14:12 37.389308 -91.400100 253 36037ft 447kts
19-Sep-18 14:13 37.352119 -91.548738 253 36038ft 446kts
19-Sep-18 14:14 37.314640 -91.697630 253 36039ft 446kts
19-Sep-18 14:15 37.277015 -91.846219 253 36038ft 446kts
19-Sep-18 14:16 37.239206 -91.994648 253 36039ft 447kts
19-Sep-18 14:17 37.201051 -92.143541 252 36038ft 447kts
19-Sep-18 14:18 37.162708 -92.292289 252 36036ft 448kts
19-Sep-18 14:19 37.124205 -92.440793 252 36034ft 449kts
19-Sep-18 14:20 37.085287 -92.590058 252 36033ft 449kts
19-Sep-18 14:21 37.046284 -92.738773 252 36022ft 450kts
19-Sep-18 14:22 37.007103 -92.887296 252 36022ft 450kts
19-Sep-18 14:23 36.967615 -93.036127 251 36021ft 450kts
19-Sep-18 14:24 36.927997 -93.184589 251 36023ft 451kts
19-Sep-18 14:25 36.888218 -93.332815 251 36023ft 451kts
19-Sep-18 14:26 36.848037 -93.481688 251 36021ft 451kts
19-Sep-18 14:27 36.807753 -93.630105 251 36018ft 453kts
19-Sep-18 14:28 36.767040 -93.779258 251 36015ft 453kts
19-Sep-18 14:29 36.726321 -93.927598 251 36014ft 453kts
19-Sep-18 14:30 36.685241 -94.076427 250 36011ft 454kts
19-Sep-18 14:31 36.643902 -94.225359 250 36016ft 454kts
19-Sep-18 14:32 36.602467 -94.373781 250 36007ft 454kts
19-Sep-18 14:33 36.570653 -94.487233 250 35995ft 454kts
19-Sep-18 14:34 36.528899 -94.635386 250 35975ft 454kts
19-Sep-18 14:35 36.486900 -94.783616 250 35972ft 454kts
19-Sep-18 14:36 36.445000 -94.930691 250 35974ft 453kts
19-Sep-18 14:37 36.402653 -95.078530 250 35965ft 454kts
19-Sep-18 14:38 36.359992 -95.226684 249 35956ft 454kts
19-Sep-18 14:39 36.317306 -95.374137 249 35951ft 455kts
19-Sep-18 14:40 36.274450 -95.522300 249 35950ft 456kts
19-Sep-18 14:41 36.231077 -95.670049 249 35941ft 457kts
19-Sep-18 14:42 36.190916 -95.819355 256 35924ft 458kts
19-Sep-18 14:43 36.164856 -95.973903 257 35922ft 459kts
19-Sep-18 14:44 36.138571 -96.128437 257 35926ft 459kts
19-Sep-18 14:45 36.112354 -96.283329 257 35927ft 458kts
19-Sep-18 14:46 36.086102 -96.437572 257 35928ft 458kts
19-Sep-18 14:47 36.059617 -96.591118 257 35930ft 456kts
19-Sep-18 14:48 36.033031 -96.743720 257 35931ft 455kts
19-Sep-18 14:49 36.006185 -96.896518 256 35931ft 455kts
19-Sep-18 14:50 35.978846 -97.050871 256 35936ft 463kts
19-Sep-18 14:51 35.951203 -97.205703 256 35937ft 461kts
19-Sep-18 14:52 35.923597 -97.359142 256 35939ft 460kts
19-Sep-18 14:53 35.895607 -97.513518 256 35938ft 459kts
19-Sep-18 14:54 35.867812 -97.666769 256 35934ft 458kts
19-Sep-18 14:55 35.839553 -97.820275 256 35934ft 458kts
19-Sep-18 14:56 35.811097 -97.972775 256 35938ft 457kts
19-Sep-18 14:57 35.787521 -98.127145 259 35939ft 458kts
19-Sep-18 14:58 35.766013 -98.281738 259 35934ft 458kts
19-Sep-18 14:59 35.744093 -98.436345 259 35931ft 459kts
19-Sep-18 15:00 35.722456 -98.591048 259 35931ft 459kts
19-Sep-18 15:01 35.700253 -98.746296 258 35929ft 460kts
19-Sep-18 15:02 35.677813 -98.901115 258 35929ft 460kts
19-Sep-18 15:03 35.655183 -99.055556 258 35931ft 459kts
19-Sep-18 15:04 35.632312 -99.210219 258 35932ft 459kts
19-Sep-18 15:05 35.609314 -99.364289 258 35924ft 458kts
19-Sep-18 15:06 35.586141 -99.518103 258 35919ft 457kts
19-Sep-18 15:07 35.562882 -99.671084 258 35918ft 456kts
19-Sep-18 15:08 35.539395 -99.824263 258 35911ft 455kts
19-Sep-18 15:09 35.515816 -99.976675 258 35906ft 455kts
19-Sep-18 15:10 35.491993 -100.129334 257 35902ft 454kts
19-Sep-18 15:11 35.468044 -100.281452 257 35900ft 455kts
19-Sep-18 15:12 35.443801 -100.434137 257 35907ft 455kts
19-Sep-18 15:13 35.419392 -100.586614 257 35927ft 456kts
19-Sep-18 15:14 35.394800 -100.738906 257 35937ft 456kts
19-Sep-18 15:15 35.369957 -100.891521 257 35942ft 456kts
19-Sep-18 15:16 35.344964 -101.043778 257 35942ft 456kts
19-Sep-18 15:17 35.319758 -101.196080 257 35940ft 455kts
19-Sep-18 15:18 35.294591 -101.347837 257 35942ft 455kts
19-Sep-18 15:19 35.269221 -101.499021 257 35948ft 454kts
19-Sep-18 15:20 35.243435 -101.650199 257 35958ft 453kts
19-Sep-18 15:21 35.228768 -101.803809 265 36038ft 457kts
19-Sep-18 15:22 35.220291 -101.957564 264 37203ft 450kts
19-Sep-18 15:23 35.211461 -102.109427 264 37948ft 447kts
19-Sep-18 15:24 35.203057 -102.260457 264 37955ft 445kts
19-Sep-18 15:25 35.194262 -102.411393 264 37956ft 445kts
19-Sep-18 15:26 35.185150 -102.562506 264 37955ft 446kts
19-Sep-18 15:27 35.175832 -102.713349 264 37941ft 445kts
19-Sep-18 15:28 35.166324 -102.864119 264 37934ft 444kts
19-Sep-18 15:29 35.156640 -103.014524 264 37924ft 444kts
19-Sep-18 15:30 35.146788 -103.164591 264 37935ft 443kts
19-Sep-18 15:31 35.136724 -103.314896 264 37918ft 442kts
19-Sep-18 15:32 35.126524 -103.464615 264 37893ft 442kts
19-Sep-18 15:33 35.116162 -103.613925 264 37882ft 441kts
19-Sep-18 15:34 35.105605 -103.763357 264 37891ft 441kts
19-Sep-18 15:35 35.096667 -103.887722 263 37907ft 440kts
19-Sep-18 15:36 35.084005 -104.061202 263 37942ft 437kts
19-Sep-18 15:37 35.073115 -104.207647 263 37977ft 436kts
19-Sep-18 15:38 35.063799 -104.330828 263 38008ft 436kts
19-Sep-18 15:39 35.050635 -104.502715 263 38049ft 436kts
19-Sep-18 15:40 35.041139 -104.624494 263 38073ft 435kts
19-Sep-18 15:41 35.029470 -104.771633 263 38097ft 435kts
19-Sep-18 15:42 35.015729 -104.942770 263 38117ft 434kts
19-Sep-18 15:43 35.005702 -105.065250 262 38116ft 435kts
19-Sep-18 15:44 34.993560 -105.212509 262 38121ft 433kts
19-Sep-18 15:45 34.981314 -105.358210 262 38130ft 431kts
19-Sep-18 15:46 34.968982 -105.503122 262 38127ft 430kts
19-Sep-18 15:47 34.956400 -105.648576 262 38129ft 430kts
19-Sep-18 15:48 34.943704 -105.793462 262 38136ft 429kts
19-Sep-18 15:49 34.930875 -105.937812 262 38112ft 429kts
19-Sep-18 15:50 34.917926 -106.081698 261 38095ft 426kts
19-Sep-18 15:51 34.904674 -106.226837 261 38093ft 443kts
19-Sep-18 15:52 34.890539 -106.378858 260 38040ft 443kts
19-Sep-18 15:53 34.877183 -106.521621 261 37997ft 423kts
19-Sep-18 15:54 34.863532 -106.665646 260 37977ft 427kts
19-Sep-18 15:55 34.849763 -106.808947 260 37976ft 426kts
19-Sep-18 15:56 34.835849 -106.951801 260 37978ft 425kts
19-Sep-18 15:57 34.821743 -107.094898 260 37983ft 425kts
19-Sep-18 15:58 34.807497 -107.237627 260 37996ft 424kts
19-Sep-18 15:59 34.793195 -107.379314 260 38012ft 424kts
19-Sep-18 16:00 34.778560 -107.522472 260 38027ft 424kts
19-Sep-18 16:01 34.763858 -107.664866 259 38041ft 424kts
19-Sep-18 16:02 34.748961 -107.807280 259 38050ft 424kts
19-Sep-18 16:03 34.733917 -107.949395 259 38059ft 424kts
19-Sep-18 16:04 34.718731 -108.091403 258 38063ft 423kts
19-Sep-18 16:05 34.703333 -108.233676 258 38065ft 423kts
19-Sep-18 16:06 34.687848 -108.375224 258 38064ft 423kts
19-Sep-18 16:07 34.672250 -108.516279 258 38063ft 423kts
19-Sep-18 16:08 34.656430 -108.657743 258 38077ft 421kts
19-Sep-18 16:09 34.640502 -108.798751 257 38082ft 421kts
19-Sep-18 16:10 34.624396 -108.940000 258 38092ft 422kts
19-Sep-18 16:11 34.608068 -109.081414 257 38093ft 423kts
19-Sep-18 16:12 34.591577 -109.222931 257 38089ft 424kts
19-Sep-18 16:13 34.574865 -109.364753 257 38089ft 424kts
19-Sep-18 16:14 34.558044 -109.506170 257 38091ft 426kts
19-Sep-18 16:15 34.540878 -109.648966 257 38101ft 426kts
19-Sep-18 16:16 34.523521 -109.791867 257 38115ft 428kts
19-Sep-18 16:17 34.506116 -109.933811 256 38126ft 428kts
19-Sep-18 16:18 34.488415 -110.076868 256 38134ft 429kts
19-Sep-18 16:19 34.470513 -110.219922 257 38131ft 428kts
19-Sep-18 16:20 34.452523 -110.362594 255 38123ft 427kts
19-Sep-18 16:21 34.434469 -110.504368 256 38113ft 427kts
19-Sep-18 16:22 34.416195 -110.646266 255 38106ft 426kts
19-Sep-18 16:23 34.397699 -110.788571 254 38115ft 435kts
19-Sep-18 16:24 34.378768 -110.932798 255 38087ft 426kts
19-Sep-18 16:25 34.360357 -111.074198 254 38094ft 424kts
19-Sep-18 16:26 34.341497 -111.214439 254 38097ft 422kts
19-Sep-18 16:27 34.345102 -111.358407 281 38100ft 448kts
19-Sep-18 16:28 34.388794 -111.500063 283 38084ft 451kts
19-Sep-18 16:29 34.434275 -111.642075 283 38066ft 453kts
19-Sep-18 16:30 34.480409 -111.784426 283 38061ft 454kts
19-Sep-18 16:31 34.526388 -111.926779 283 38035ft 453kts
19-Sep-18 16:32 34.572133 -112.069385 283 38031ft 452kts
19-Sep-18 16:33 34.617911 -112.212182 283 38030ft 452kts
19-Sep-18 16:34 34.662825 -112.354046 282 38028ft 450kts
19-Sep-18 16:35 34.696416 -112.497768 262 38031ft 429kts
19-Sep-18 16:36 34.683573 -112.639776 254 38030ft 420kts
19-Sep-18 16:37 34.666981 -112.780096 254 38023ft 420kts
19-Sep-18 16:38 34.650268 -112.920231 254 38009ft 419kts
19-Sep-18 16:39 34.633680 -113.060194 254 37958ft 419kts
19-Sep-18 16:40 34.616697 -113.200505 254 37922ft 419kts
19-Sep-18 16:41 34.599731 -113.340768 254 37891ft 419kts
19-Sep-18 16:42 34.582350 -113.480351 254 37862ft 419kts
19-Sep-18 16:43 34.564668 -113.620617 254 37849ft 421kts
19-Sep-18 16:44 34.548952 -113.761684 255 37778ft 422kts
19-Sep-18 16:45 34.533132 -113.903047 255 37735ft 423kts
19-Sep-18 16:46 34.517059 -114.044392 255 37719ft 422kts
19-Sep-18 16:47 34.489788 -114.181377 249 37703ft 417kts
19-Sep-18 16:48 34.460339 -114.317088 249 37694ft 417kts
19-Sep-18 16:49 34.431024 -114.453133 249 37690ft 417kts
19-Sep-18 16:50 34.402304 -114.589120 249 37690ft 415kts
19-Sep-18 16:51 34.373233 -114.724167 249 37688ft 415kts
19-Sep-18 16:52 34.343807 -114.859080 249 37704ft 414kts
19-Sep-18 16:53 34.314465 -114.993755 249 37710ft 414kts
19-Sep-18 16:54 34.284864 -115.127993 249 37718ft 413kts
19-Sep-18 16:55 34.255428 -115.262413 249 37712ft 413kts
19-Sep-18 16:56 34.226932 -115.397085 249 37722ft 412kts
19-Sep-18 16:57 34.198190 -115.530829 249 37735ft 412kts
19-Sep-18 16:58 34.169062 -115.665302 249 37324ft 414kts
19-Sep-18 16:59 34.152805 -115.804480 257 36326ft 422kts
19-Sep-18 17:00 34.139127 -115.945238 257 34181ft 422kts
19-Sep-18 17:01 34.125617 -116.084803 257 31906ft 412kts
19-Sep-18 17:02 34.112248 -116.219714 258 29978ft 398kts
19-Sep-18 17:03 34.098855 -116.350571 258 28121ft 387kts
19-Sep-18 17:04 34.085686 -116.473059 260 26371ft 380kts
19-Sep-18 17:05 34.072648 -116.593308 262 24653ft 375kts
19-Sep-18 17:06 34.061239 -116.717764 263 22930ft 369kts
19-Sep-18 17:07 34.049722 -116.840097 264 21205ft 366kts
19-Sep-18 17:08 34.036152 -116.958825 262 19423ft 360kts
19-Sep-18 17:09 34.021191 -117.077387 264 17713ft 344kts
19-Sep-18 17:10 34.007643 -117.191461 264 16158ft 346kts
19-Sep-18 17:11 33.994961 -117.297303 263 14627ft 348kts
19-Sep-18 17:12 33.981378 -117.412338 263 12965ft 343kts
19-Sep-18 17:13 33.979057 -117.522908 286 11660ft 329kts
19-Sep-18 17:14 34.004504 -117.624333 286 10692ft 300kts
19-Sep-18 17:15 34.021580 -117.717289 267 9712ft 287kts
19-Sep-18 17:16 34.011701 -117.803956 263 8528ft 286kts
19-Sep-18 17:17 34.003624 -117.895564 266 7239ft 287kts
19-Sep-18 17:18 33.995736 -117.977175 263 6151ft 276kts
19-Sep-18 17:19 33.986500 -118.066269 263 4794ft 270kts
19-Sep-18 17:20 33.978246 -118.146815 262 3661ft 252kts
19-Sep-18 17:21 33.970367 -118.223573 262 3012ft 218kts
19-Sep-18 17:22 33.963415 -118.291527 263 1919ft 191kts
19-Sep-18 17:23 33.957708 -118.347265 264 1048ft 143kts
19-Sep-18 17:24 33.953165 -118.392066 263 319ft 133kts
19-Sep-18 17:25 33.949260 -118.419553 231 134ft 0kts
19-Sep-18 17:26 33.948343 -118.421004 232 134ft 16kts
19-Sep-18 17:27 33.947206 -118.418664 83 134ft 27kts
19-Sep-18 17:28 33.948189 -118.410407 82 134ft 16kts
19-Sep-18 17:29 33.946980 -118.408473 132 134ft 0kts
19-Sep-18 17:30 33.946980 -118.408472 132 134ft 0kts

Navigation Log

Ident Type
Flight plan parsing failed, navigation log unavailable